sensor_id;sensor_type;location;lat;lon;timestamp;pressure;altitude;pressure_sealevel;temperature;humidity
20710;BME280;10516;51.518;9.864;2023-03-21T00:01:55;98944.38;;;8.61;77.91
20710;BME280;10516;51.518;9.864;2023-03-21T00:04:24;98936.31;;;8.45;78.01
20710;BME280;10516;51.518;9.864;2023-03-21T00:06:50;98936.50;;;8.55;78.11
20710;BME280;10516;51.518;9.864;2023-03-21T00:09:15;98928.66;;;8.48;78.60
20710;BME280;10516;51.518;9.864;2023-03-21T00:11:41;98933.97;;;8.60;78.11
20710;BME280;10516;51.518;9.864;2023-03-21T00:14:06;98932.59;;;8.46;78.23
20710;BME280;10516;51.518;9.864;2023-03-21T00:16:32;98927.97;;;8.41;78.50
20710;BME280;10516;51.518;9.864;2023-03-21T00:18:59;98932.81;;;8.56;77.76
20710;BME280;10516;51.518;9.864;2023-03-21T00:21:27;98927.38;;;8.62;77.53
20710;BME280;10516;51.518;9.864;2023-03-21T00:23:56;98925.88;;;8.66;78.09
20710;BME280;10516;51.518;9.864;2023-03-21T00:26:22;98930.13;;;8.67;78.02
20710;BME280;10516;51.518;9.864;2023-03-21T00:28:47;98919.16;;;8.64;77.14
20710;BME280;10516;51.518;9.864;2023-03-21T00:31:12;98921.94;;;8.46;77.68
20710;BME280;10516;51.518;9.864;2023-03-21T00:33:37;98921.69;;;8.59;78.19
20710;BME280;10516;51.518;9.864;2023-03-21T00:36:03;98922.06;;;8.62;77.45
20710;BME280;10516;51.518;9.864;2023-03-21T00:38:28;98920.53;;;8.66;77.01
20710;BME280;10516;51.518;9.864;2023-03-21T00:40:54;98908.50;;;8.64;77.46
20710;BME280;10516;51.518;9.864;2023-03-21T00:43:19;98905.16;;;8.68;77.54
20710;BME280;10516;51.518;9.864;2023-03-21T00:45:48;98910.94;;;8.65;77.14
20710;BME280;10516;51.518;9.864;2023-03-21T00:48:13;98909.81;;;8.38;78.25
20710;BME280;10516;51.518;9.864;2023-03-21T00:50:38;98908.06;;;8.55;78.33
20710;BME280;10516;51.518;9.864;2023-03-21T00:53:04;98908.06;;;8.55;77.54
20710;BME280;10516;51.518;9.864;2023-03-21T00:55:30;98909.25;;;8.36;78.54
20710;BME280;10516;51.518;9.864;2023-03-21T00:57:55;98907.00;;;8.56;77.87
20710;BME280;10516;51.518;9.864;2023-03-21T01:00:20;98910.28;;;8.58;78.19
20710;BME280;10516;51.518;9.864;2023-03-21T01:02:46;98895.72;;;8.49;77.96
20710;BME280;10516;51.518;9.864;2023-03-21T01:05:25;98901.22;;;8.59;77.63
20710;BME280;10516;51.518;9.864;2023-03-21T01:08:13;98894.06;;;8.48;78.25
20710;BME280;10516;51.518;9.864;2023-03-21T01:10:40;98896.28;;;8.40;78.07
20710;BME280;10516;51.518;9.864;2023-03-21T01:13:06;98896.41;;;8.45;77.91
20710;BME280;10516;51.518;9.864;2023-03-21T01:15:32;98904.16;;;8.46;77.85
20710;BME280;10516;51.518;9.864;2023-03-21T01:17:58;98894.69;;;8.39;77.56
20710;BME280;10516;51.518;9.864;2023-03-21T01:20:23;98892.47;;;8.47;77.21
20710;BME280;10516;51.518;9.864;2023-03-21T01:22:48;98898.03;;;8.34;77.60
20710;BME280;10516;51.518;9.864;2023-03-21T01:25:14;98901.03;;;8.38;77.95
20710;BME280;10516;51.518;9.864;2023-03-21T01:27:39;98901.38;;;8.41;77.71
20710;BME280;10516;51.518;9.864;2023-03-21T01:30:05;98890.06;;;8.34;77.28
20710;BME280;10516;51.518;9.864;2023-03-21T01:32:30;98897.56;;;8.37;77.78
20710;BME280;10516;51.518;9.864;2023-03-21T01:34:55;98891.31;;;8.43;77.77
20710;BME280;10516;51.518;9.864;2023-03-21T01:37:21;98890.28;;;8.32;78.31
20710;BME280;10516;51.518;9.864;2023-03-21T01:39:46;98890.97;;;8.28;78.26
20710;BME280;10516;51.518;9.864;2023-03-21T01:42:12;98892.59;;;8.29;78.59
20710;BME280;10516;51.518;9.864;2023-03-21T01:44:57;98880.47;;;8.33;78.50
20710;BME280;10516;51.518;9.864;2023-03-21T01:47:22;98885.53;;;8.35;78.13
20710;BME280;10516;51.518;9.864;2023-03-21T01:49:51;98878.38;;;8.35;78.18
20710;BME280;10516;51.518;9.864;2023-03-21T01:52:20;98877.22;;;8.31;78.13
20710;BME280;10516;51.518;9.864;2023-03-21T01:54:48;98881.03;;;8.35;78.03
20710;BME280;10516;51.518;9.864;2023-03-21T01:57:16;98876.06;;;8.27;77.76
20710;BME280;10516;51.518;9.864;2023-03-21T01:59:44;98868.78;;;8.34;78.04
20710;BME280;10516;51.518;9.864;2023-03-21T02:02:11;98877.91;;;8.38;78.61
20710;BME280;10516;51.518;9.864;2023-03-21T02:04:38;98874.06;;;8.46;77.73
20710;BME280;10516;51.518;9.864;2023-03-21T02:07:05;98874.78;;;8.18;78.78
20710;BME280;10516;51.518;9.864;2023-03-21T02:09:32;98872.72;;;8.32;78.96
20710;BME280;10516;51.518;9.864;2023-03-21T02:11:59;98869.50;;;8.29;78.60
20710;BME280;10516;51.518;9.864;2023-03-21T02:14:24;98865.53;;;8.44;78.31
20710;BME280;10516;51.518;9.864;2023-03-21T02:16:51;98867.84;;;8.52;77.56
20710;BME280;10516;51.518;9.864;2023-03-21T02:22:01;98857.34;;;7.99;79.67
20710;BME280;10516;51.518;9.864;2023-03-21T02:27:08;98854.78;;;8.39;78.82
20710;BME280;10516;51.518;9.864;2023-03-21T02:35:03;98843.34;;;8.26;79.36
20710;BME280;10516;51.518;9.864;2023-03-21T02:37:52;98846.44;;;8.47;78.45
20710;BME280;10516;51.518;9.864;2023-03-21T02:45:37;98843.78;;;8.47;78.11
20710;BME280;10516;51.518;9.864;2023-03-21T02:48:05;98843.78;;;8.58;77.77
20710;BME280;10516;51.518;9.864;2023-03-21T02:52:58;98844.81;;;8.46;78.25
20710;BME280;10516;51.518;9.864;2023-03-21T02:55:26;98850.06;;;8.41;78.87
20710;BME280;10516;51.518;9.864;2023-03-21T02:57:54;98844.94;;;8.39;79.14
20710;BME280;10516;51.518;9.864;2023-03-21T03:00:25;98847.47;;;8.46;78.43
20710;BME280;10516;51.518;9.864;2023-03-21T03:02:52;98846.00;;;8.38;78.87
20710;BME280;10516;51.518;9.864;2023-03-21T03:05:22;98842.53;;;8.03;79.09
20710;BME280;10516;51.518;9.864;2023-03-21T03:15:37;98838.38;;;8.30;78.60
20710;BME280;10516;51.518;9.864;2023-03-21T03:23:18;98831.19;;;8.30;79.67
20710;BME280;10516;51.518;9.864;2023-03-21T03:25:46;98828.56;;;8.19;79.47
20710;BME280;10516;51.518;9.864;2023-03-21T03:28:16;98830.63;;;8.28;78.99
20710;BME280;10516;51.518;9.864;2023-03-21T03:30:44;98831.91;;;8.26;79.14
20710;BME280;10516;51.518;9.864;2023-03-21T03:33:10;98830.03;;;8.15;79.25
20710;BME280;10516;51.518;9.864;2023-03-21T03:35:38;98831.91;;;8.26;79.14
20710;BME280;10516;51.518;9.864;2023-03-21T03:38:04;98825.56;;;8.27;79.07
20710;BME280;10516;51.518;9.864;2023-03-21T03:40:33;98829.44;;;8.24;80.11
20710;BME280;10516;51.518;9.864;2023-03-21T03:43:02;98822.41;;;8.18;79.34
20710;BME280;10516;51.518;9.864;2023-03-21T03:45:32;98827.50;;;8.32;79.06
20710;BME280;10516;51.518;9.864;2023-03-21T03:52:50;98825.91;;;8.19;79.58
20710;BME280;10516;51.518;9.864;2023-03-21T03:55:16;98826.69;;;8.19;80.61
20710;BME280;10516;51.518;9.864;2023-03-21T03:57:43;98821.59;;;8.18;80.08
20710;BME280;10516;51.518;9.864;2023-03-21T04:00:09;98818.63;;;8.14;80.63
20710;BME280;10516;51.518;9.864;2023-03-21T04:02:39;98815.13;;;8.14;80.76
20710;BME280;10516;51.518;9.864;2023-03-21T04:05:05;98815.59;;;8.22;79.86
20710;BME280;10516;51.518;9.864;2023-03-21T04:07:30;98809.59;;;8.15;80.18
20710;BME280;10516;51.518;9.864;2023-03-21T04:09:56;98807.50;;;8.17;80.58
20710;BME280;10516;51.518;9.864;2023-03-21T04:12:22;98809.94;;;8.19;80.42
20710;BME280;10516;51.518;9.864;2023-03-21T04:14:47;98808.06;;;8.19;80.07
20710;BME280;10516;51.518;9.864;2023-03-21T04:17:12;98808.31;;;8.18;81.04
20710;BME280;10516;51.518;9.864;2023-03-21T04:19:37;98807.75;;;8.16;80.39
20710;BME280;10516;51.518;9.864;2023-03-21T04:22:03;98806.22;;;8.20;80.12
20710;BME280;10516;51.518;9.864;2023-03-21T04:24:28;98800.34;;;8.18;80.39
20710;BME280;10516;51.518;9.864;2023-03-21T04:26:57;98804.25;;;8.15;81.09
20710;BME280;10516;51.518;9.864;2023-03-21T04:29:22;98806.69;;;8.17;81.51
20710;BME280;10516;51.518;9.864;2023-03-21T04:31:48;98808.09;;;8.08;81.31
20710;BME280;10516;51.518;9.864;2023-03-21T04:34:14;98806.59;;;8.12;81.40
20710;BME280;10516;51.518;9.864;2023-03-21T04:36:39;98812.72;;;8.12;81.33
20710;BME280;10516;51.518;9.864;2023-03-21T04:39:11;98804.38;;;8.09;81.50
20710;BME280;10516;51.518;9.864;2023-03-21T04:41:40;98802.91;;;7.90;82.37
20710;BME280;10516;51.518;9.864;2023-03-21T04:44:06;98797.72;;;7.95;82.12
20710;BME280;10516;51.518;9.864;2023-03-21T04:46:32;98801.63;;;8.04;81.99
20710;BME280;10516;51.518;9.864;2023-03-21T04:48:57;98804.88;;;8.06;81.50
20710;BME280;10516;51.518;9.864;2023-03-21T04:51:23;98803.13;;;8.11;81.12
20710;BME280;10516;51.518;9.864;2023-03-21T04:53:48;98796.41;;;8.09;80.76
20710;BME280;10516;51.518;9.864;2023-03-21T04:56:16;98799.06;;;8.09;80.36
20710;BME280;10516;51.518;9.864;2023-03-21T04:58:41;98796.53;;;7.91;81.60
20710;BME280;10516;51.518;9.864;2023-03-21T05:01:07;98794.25;;;7.83;81.86
20710;BME280;10516;51.518;9.864;2023-03-21T05:03:32;98799.19;;;8.02;81.84
20710;BME280;10516;51.518;9.864;2023-03-21T05:06:07;98804.06;;;8.05;81.11
20710;BME280;10516;51.518;9.864;2023-03-21T05:08:33;98799.19;;;8.02;81.53
20710;BME280;10516;51.518;9.864;2023-03-21T05:10:58;98805.13;;;7.93;82.46
20710;BME280;10516;51.518;9.864;2023-03-21T05:13:24;98805.00;;;7.99;81.60
20710;BME280;10516;51.518;9.864;2023-03-21T05:15:49;98806.59;;;8.00;82.26
20710;BME280;10516;51.518;9.864;2023-03-21T05:18:14;98805.91;;;8.05;81.53
20710;BME280;10516;51.518;9.864;2023-03-21T05:20:49;98811.09;;;8.00;82.18
20710;BME280;10516;51.518;9.864;2023-03-21T05:23:18;98798.88;;;7.99;81.96
20710;BME280;10516;51.518;9.864;2023-03-21T05:25:43;98805.56;;;8.01;81.36
20710;BME280;10516;51.518;9.864;2023-03-21T05:28:08;98803.81;;;7.95;81.55
20710;BME280;10516;51.518;9.864;2023-03-21T05:30:33;98804.50;;;8.02;81.28
20710;BME280;10516;51.518;9.864;2023-03-21T05:32:59;98799.31;;;7.96;82.17
20710;BME280;10516;51.518;9.864;2023-03-21T05:35:38;98798.63;;;7.89;81.74
20710;BME280;10516;51.518;9.864;2023-03-21T05:38:04;98795.16;;;8.00;81.53
20710;BME280;10516;51.518;9.864;2023-03-21T05:40:29;98804.06;;;8.05;81.71
20710;BME280;10516;51.518;9.864;2023-03-21T05:42:55;98796.28;;;8.04;81.26
20710;BME280;10516;51.518;9.864;2023-03-21T05:45:20;98796.28;;;8.04;82.48
20710;BME280;10516;51.518;9.864;2023-03-21T05:47:46;98798.38;;;8.02;81.68
20710;BME280;10516;51.518;9.864;2023-03-21T05:50:11;98798.06;;;7.98;82.46
20710;BME280;10516;51.518;9.864;2023-03-21T05:52:39;98790.31;;;7.97;82.30
20710;BME280;10516;51.518;9.864;2023-03-21T05:55:04;98790.31;;;7.97;82.72
20710;BME280;10516;51.518;9.864;2023-03-21T05:57:30;98795.97;;;8.00;82.08
20710;BME280;10516;51.518;9.864;2023-03-21T05:59:58;98793.75;;;8.09;81.69
20710;BME280;10516;51.518;9.864;2023-03-21T06:02:24;98800.34;;;8.06;81.93
20710;BME280;10516;51.518;9.864;2023-03-21T06:04:49;98796.66;;;8.07;82.54
20710;BME280;10516;51.518;9.864;2023-03-21T06:07:14;98793.75;;;8.09;81.99
20710;BME280;10516;51.518;9.864;2023-03-21T06:09:40;98797.13;;;8.04;82.18
20710;BME280;10516;51.518;9.864;2023-03-21T06:12:05;98788.94;;;8.06;82.50
20710;BME280;10516;51.518;9.864;2023-03-21T06:14:30;98794.81;;;7.96;82.37
20710;BME280;10516;51.518;9.864;2023-03-21T06:16:55;98796.28;;;8.04;82.70
20710;BME280;10516;51.518;9.864;2023-03-21T06:19:21;98803.13;;;8.11;82.39
20710;BME280;10516;51.518;9.864;2023-03-21T06:21:46;98794.13;;;8.12;82.35
20710;BME280;10516;51.518;9.864;2023-03-21T06:24:12;98798.84;;;8.10;83.10
20710;BME280;10516;51.518;9.864;2023-03-21T06:26:37;98795.47;;;8.15;83.17
20710;BME280;10516;51.518;9.864;2023-03-21T06:29:02;98793.38;;;8.17;82.44
20710;BME280;10516;51.518;9.864;2023-03-21T06:31:28;98801.97;;;8.19;82.32
20710;BME280;10516;51.518;9.864;2023-03-21T06:33:53;98803.22;;;8.28;82.39
20710;BME280;10516;51.518;9.864;2023-03-21T06:36:18;98799.44;;;8.12;82.54
20710;BME280;10516;51.518;9.864;2023-03-21T06:38:44;98797.81;;;8.11;83.28
20710;BME280;10516;51.518;9.864;2023-03-21T06:41:11;98800.44;;;8.23;82.92
20710;BME280;10516;51.518;9.864;2023-03-21T06:43:36;98796.41;;;8.20;82.68
20710;BME280;10516;51.518;9.864;2023-03-21T06:46:02;98804.38;;;8.20;81.98
20710;BME280;10516;51.518;9.864;2023-03-21T06:48:27;98795.59;;;8.32;82.31
20710;BME280;10516;51.518;9.864;2023-03-21T06:50:53;98790.84;;;8.22;82.88
20710;BME280;10516;51.518;9.864;2023-03-21T06:53:19;98792.22;;;8.24;82.23
20710;BME280;10516;51.518;9.864;2023-03-21T06:55:48;98788.66;;;8.30;82.24
20710;BME280;10516;51.518;9.864;2023-03-21T06:58:14;98789.22;;;8.44;82.00
20710;BME280;10516;51.518;9.864;2023-03-21T07:00:39;98794.78;;;8.43;81.88
20710;BME280;10516;51.518;9.864;2023-03-21T07:03:05;98800.84;;;8.55;81.34
20710;BME280;10516;51.518;9.864;2023-03-21T07:05:30;98798.59;;;8.35;82.41
20710;BME280;10516;51.518;9.864;2023-03-21T07:07:56;98799.28;;;8.42;81.28
20710;BME280;10516;51.518;9.864;2023-03-21T07:10:21;98794.97;;;8.53;81.47
20710;BME280;10516;51.518;9.864;2023-03-21T07:12:46;98796.03;;;8.52;81.61
20710;BME280;10516;51.518;9.864;2023-03-21T07:15:11;98799.56;;;8.57;81.66
20710;BME280;10516;51.518;9.864;2023-03-21T07:17:37;98799.81;;;8.56;81.91
20710;BME280;10516;51.518;9.864;2023-03-21T07:20:02;98802.34;;;8.62;81.10
20710;BME280;10516;51.518;9.864;2023-03-21T07:22:31;98805.31;;;8.66;81.66
20710;BME280;10516;51.518;9.864;2023-03-21T07:24:57;98809.19;;;8.58;82.11
20710;BME280;10516;51.518;9.864;2023-03-21T07:27:22;98809.03;;;8.65;81.19
20710;BME280;10516;51.518;9.864;2023-03-21T07:29:47;98806.97;;;8.67;80.86
20710;BME280;10516;51.518;9.864;2023-03-21T07:32:14;98810.50;;;8.72;80.96
20710;BME280;10516;51.518;9.864;2023-03-21T07:34:39;98800.09;;;8.71;80.90
20710;BME280;10516;51.518;9.864;2023-03-21T07:37:06;98801.84;;;8.65;81.33
20710;BME280;10516;51.518;9.864;2023-03-21T07:39:31;98799.03;;;8.72;81.12
20710;BME280;10516;51.518;9.864;2023-03-21T07:41:58;98794.13;;;8.64;81.02
20710;BME280;10516;51.518;9.864;2023-03-21T07:44:23;98796.75;;;8.75;80.87
20710;BME280;10516;51.518;9.864;2023-03-21T07:46:49;98797.19;;;8.72;80.58
20710;BME280;10516;51.518;9.864;2023-03-21T07:49:14;98802.97;;;8.69;80.34
20710;BME280;10516;51.518;9.864;2023-03-21T07:51:39;98799.41;;;8.75;80.24
20710;BME280;10516;51.518;9.864;2023-03-21T07:54:05;98800.63;;;8.84;80.43
20710;BME280;10516;51.518;9.864;2023-03-21T07:56:30;98803.50;;;8.83;80.81
20710;BME280;10516;51.518;9.864;2023-03-21T07:58:55;98792.13;;;8.71;80.65
20710;BME280;10516;51.518;9.864;2023-03-21T08:01:21;98790.47;;;8.81;80.07
20710;BME280;10516;51.518;9.864;2023-03-21T08:03:46;98787.41;;;8.89;79.72
20710;BME280;10516;51.518;9.864;2023-03-21T08:06:12;98790.72;;;8.96;80.10
20710;BME280;10516;51.518;9.864;2023-03-21T08:08:37;98784.28;;;8.92;80.12
20710;BME280;10516;51.518;9.864;2023-03-21T08:11:03;98794.09;;;8.92;79.78
20710;BME280;10516;51.518;9.864;2023-03-21T08:13:28;98792.16;;;8.87;80.32
20710;BME280;10516;51.518;9.864;2023-03-21T08:15:53;98779.84;;;8.98;80.23
20710;BME280;10516;51.518;9.864;2023-03-21T08:18:19;98791.69;;;8.90;80.02
20710;BME280;10516;51.518;9.864;2023-03-21T08:20:44;98797.28;;;9.05;80.12
20710;BME280;10516;51.518;9.864;2023-03-21T08:23:09;98784.44;;;9.02;79.83
20710;BME280;10516;51.518;9.864;2023-03-21T08:25:35;98789.41;;;9.11;79.10
20710;BME280;10516;51.518;9.864;2023-03-21T08:28:00;98789.63;;;9.09;79.42
20710;BME280;10516;51.518;9.864;2023-03-21T08:30:25;98791.97;;;9.05;79.03
20710;BME280;10516;51.518;9.864;2023-03-21T08:32:54;98787.03;;;9.14;78.90
20710;BME280;10516;51.518;9.864;2023-03-21T08:35:21;98789.41;;;9.11;79.38
20710;BME280;10516;51.518;9.864;2023-03-21T08:37:46;98789.25;;;9.17;78.78
20710;BME280;10516;51.518;9.864;2023-03-21T08:40:13;98780.59;;;9.27;78.53
20710;BME280;10516;51.518;9.864;2023-03-21T08:42:40;98789.00;;;9.19;78.72
20710;BME280;10516;51.518;9.864;2023-03-21T08:45:06;98784.47;;;9.36;78.32
20710;BME280;10516;51.518;9.864;2023-03-21T08:47:31;98785.03;;;9.38;78.03
20710;BME280;10516;51.518;9.864;2023-03-21T08:49:57;98781.00;;;9.35;78.58
20710;BME280;10516;51.518;9.864;2023-03-21T08:52:23;98783.91;;;9.50;77.80
20710;BME280;10516;51.518;9.864;2023-03-21T08:54:48;98784.72;;;9.51;77.67
20710;BME280;10516;51.518;9.864;2023-03-21T08:57:13;98781.81;;;9.52;78.01
20710;BME280;10516;51.518;9.864;2023-03-21T08:59:39;98787.72;;;9.54;77.66
20710;BME280;10516;51.518;9.864;2023-03-21T09:02:04;98784.72;;;9.51;77.89
20710;BME280;10516;51.518;9.864;2023-03-21T09:04:30;98786.91;;;9.54;77.98
20710;BME280;10516;51.518;9.864;2023-03-21T09:06:56;98790.47;;;9.43;77.84
20710;BME280;10516;51.518;9.864;2023-03-21T09:09:21;98788.66;;;9.48;77.29
20710;BME280;10516;51.518;9.864;2023-03-21T09:11:46;98788.19;;;9.51;77.00
20710;BME280;10516;51.518;9.864;2023-03-21T09:14:11;98790.38;;;9.54;76.57
20710;BME280;10516;51.518;9.864;2023-03-21T09:16:37;98785.53;;;9.51;77.11
20710;BME280;10516;51.518;9.864;2023-03-21T09:19:02;98787.38;;;9.51;76.46
20710;BME280;10516;51.518;9.864;2023-03-21T09:21:28;98790.94;;;9.56;75.80
20710;BME280;10516;51.518;9.864;2023-03-21T09:23:54;98781.59;;;9.54;75.94
20710;BME280;10516;51.518;9.864;2023-03-21T09:26:23;98786.75;;;9.60;76.16
20710;BME280;10516;51.518;9.864;2023-03-21T09:28:49;98786.19;;;9.58;76.07
20710;BME280;10516;51.518;9.864;2023-03-21T09:31:14;98780.91;;;9.63;75.78
20710;BME280;10516;51.518;9.864;2023-03-21T09:33:40;98782.28;;;9.66;75.30
20710;BME280;10516;51.518;9.864;2023-03-21T09:36:07;98782.75;;;9.79;75.82
20710;BME280;10516;51.518;9.864;2023-03-21T09:38:36;98780.09;;;9.79;75.46
20710;BME280;10516;51.518;9.864;2023-03-21T09:48:57;98770.13;;;9.92;75.22
20710;BME280;10516;51.518;9.864;2023-03-21T09:51:32;98766.78;;;10.01;74.70
20710;BME280;10516;51.518;9.864;2023-03-21T09:54:00;98770.03;;;10.03;74.97
20710;BME280;10516;51.518;9.864;2023-03-21T09:56:27;98772.91;;;10.18;74.87
20710;BME280;10516;51.518;9.864;2023-03-21T09:58:55;98770.03;;;10.20;74.47
20710;BME280;10516;51.518;9.864;2023-03-21T10:01:32;98781.00;;;10.23;74.00
20710;BME280;10516;51.518;9.864;2023-03-21T10:04:05;98775.91;;;10.22;74.43
20710;BME280;10516;51.518;9.864;2023-03-21T10:06:31;98773.09;;;10.33;74.47
20710;BME280;10516;51.518;9.864;2023-03-21T10:08:59;98774.25;;;10.37;74.03
20710;BME280;10516;51.518;9.864;2023-03-21T10:11:30;98772.69;;;10.41;74.73
20710;BME280;10516;51.518;9.864;2023-03-21T10:18:50;98761.19;;;10.63;74.00
20710;BME280;10516;51.518;9.864;2023-03-21T10:21:20;98762.91;;;10.74;73.43
20710;BME280;10516;51.518;9.864;2023-03-21T10:23:46;98751.66;;;10.72;74.21
20710;BME280;10516;51.518;9.864;2023-03-21T10:26:12;98747.19;;;10.77;73.28
20710;BME280;10516;51.518;9.864;2023-03-21T10:28:38;98745.94;;;10.85;73.45
20710;BME280;10516;51.518;9.864;2023-03-21T10:31:06;98753.69;;;10.86;73.43
20710;BME280;10516;51.518;9.864;2023-03-21T10:33:41;98746.75;;;10.85;73.08
20710;BME280;10516;51.518;9.864;2023-03-21T10:36:09;98755.19;;;10.77;73.40
20710;BME280;10516;51.518;9.864;2023-03-21T10:38:35;98745.56;;;10.76;72.96
20710;BME280;10516;51.518;9.864;2023-03-21T10:41:03;98742.50;;;10.89;72.91
20710;BME280;10516;51.518;9.864;2023-03-21T10:43:30;98750.00;;;10.92;72.84
20710;BME280;10516;51.518;9.864;2023-03-21T10:45:58;98741.75;;;10.94;73.23
20710;BME280;10516;51.518;9.864;2023-03-21T10:48:29;98744.38;;;10.89;73.00
20710;BME280;10516;51.518;9.864;2023-03-21T10:50:59;98737.19;;;10.94;73.22
20710;BME280;10516;51.518;9.864;2023-03-21T10:55:53;98739.44;;;11.07;72.92
20710;BME280;10516;51.518;9.864;2023-03-21T10:58:21;98741.41;;;11.17;72.69
20710;BME280;10516;51.518;9.864;2023-03-21T11:00:51;98734.00;;;11.24;72.32
20710;BME280;10516;51.518;9.864;2023-03-21T11:03:22;98742.81;;;11.24;72.58
20710;BME280;10516;51.518;9.864;2023-03-21T11:05:52;98736.34;;;11.20;72.24
20710;BME280;10516;51.518;9.864;2023-03-21T11:08:17;98743.44;;;11.05;72.24
20710;BME280;10516;51.518;9.864;2023-03-21T11:10:59;98734.03;;;10.97;72.18
20710;BME280;10516;51.518;9.864;2023-03-21T11:13:32;98740.66;;;10.95;72.81
20710;BME280;10516;51.518;9.864;2023-03-21T11:16:02;98738.34;;;11.03;72.43
20710;BME280;10516;51.518;9.864;2023-03-21T11:18:29;98735.47;;;11.10;72.76
20710;BME280;10516;51.518;9.864;2023-03-21T11:20:57;98732.25;;;11.08;72.63
20710;BME280;10516;51.518;9.864;2023-03-21T11:23:27;98738.13;;;11.10;72.49
20710;BME280;10516;51.518;9.864;2023-03-21T11:25:53;98728.06;;;11.17;72.58
20710;BME280;10516;51.518;9.864;2023-03-21T11:28:23;98725.13;;;11.18;72.67
20710;BME280;10516;51.518;9.864;2023-03-21T11:30:58;98721.13;;;11.16;72.54
20710;BME280;10516;51.518;9.864;2023-03-21T11:33:25;98723.19;;;11.09;72.95
20710;BME280;10516;51.518;9.864;2023-03-21T11:35:58;98726.91;;;11.08;72.79
20710;BME280;10516;51.518;9.864;2023-03-21T11:38:25;98724.03;;;11.14;72.38
20710;BME280;10516;51.518;9.864;2023-03-21T11:40:52;98727.00;;;11.18;72.82
20710;BME280;10516;51.518;9.864;2023-03-21T11:45:56;98720.00;;;11.12;73.30
20710;BME280;10516;51.518;9.864;2023-03-21T11:48:22;98727.16;;;11.06;73.50
20710;BME280;10516;51.518;9.864;2023-03-21T11:50:48;98726.34;;;11.06;73.45
20710;BME280;10516;51.518;9.864;2023-03-21T12:06:27;98706.72;;;10.90;74.38
20710;BME280;10516;51.518;9.864;2023-03-21T12:19:32;98684.38;;;10.96;77.03
20710;BME280;10516;51.518;9.864;2023-03-21T12:22:12;98689.94;;;10.95;76.80
20710;BME280;10516;51.518;9.864;2023-03-21T12:24:49;98685.22;;;10.75;77.15
20710;BME280;10516;51.518;9.864;2023-03-21T12:40:32;98673.28;;;10.83;76.60
20710;BME280;10516;51.518;9.864;2023-03-21T12:43:11;98672.75;;;10.86;77.25
20710;BME280;10516;51.518;9.864;2023-03-21T12:45:43;98669.09;;;10.92;76.57
20710;BME280;10516;51.518;9.864;2023-03-21T12:50:55;98675.00;;;10.94;76.96
20710;BME280;10516;51.518;9.864;2023-03-21T12:56:06;98669.16;;;11.02;77.24
20710;BME280;10516;51.518;9.864;2023-03-21T12:58:40;98667.59;;;11.06;77.09
20710;BME280;10516;51.518;9.864;2023-03-21T13:01:07;98671.13;;;11.11;77.57
20710;BME280;10516;51.518;9.864;2023-03-21T13:03:35;98664.41;;;11.09;77.09
20710;BME280;10516;51.518;9.864;2023-03-21T13:06:05;98660.44;;;11.11;77.43
20710;BME280;10516;51.518;9.864;2023-03-21T13:11:02;98652.16;;;11.13;77.68
20710;BME280;10516;51.518;9.864;2023-03-21T13:13:42;98650.81;;;11.10;77.80
20710;BME280;10516;51.518;9.864;2023-03-21T13:16:20;98652.09;;;11.03;77.81
20710;BME280;10516;51.518;9.864;2023-03-21T13:21:30;98639.94;;;10.85;78.47
20710;BME280;10516;51.518;9.864;2023-03-21T13:26:39;98642.09;;;10.88;79.42
20710;BME280;10516;51.518;9.864;2023-03-21T13:29:22;98632.69;;;10.81;79.78
20710;BME280;10516;51.518;9.864;2023-03-21T13:31:49;98636.41;;;10.80;79.60
20710;BME280;10516;51.518;9.864;2023-03-21T13:34:15;98636.41;;;10.80;80.42
20710;BME280;10516;51.518;9.864;2023-03-21T13:36:44;98639.59;;;10.77;79.89
20710;BME280;10516;51.518;9.864;2023-03-21T13:39:15;98630.44;;;10.68;81.14
20710;BME280;10516;51.518;9.864;2023-03-21T13:41:42;98639.03;;;10.75;80.82
20710;BME280;10516;51.518;9.864;2023-03-21T13:44:15;98628.34;;;10.75;81.30
20710;BME280;10516;51.518;9.864;2023-03-21T13:46:43;98638.41;;;10.63;81.92
20710;BME280;10516;51.518;9.864;2023-03-21T13:56:50;98632.94;;;10.47;82.56
20710;BME280;10516;51.518;9.864;2023-03-21T13:59:17;98627.81;;;10.41;82.73
20710;BME280;10516;51.518;9.864;2023-03-21T14:02:26;98622.53;;;10.24;83.61
20710;BME280;10516;51.518;9.864;2023-03-21T14:04:33;98624.47;;;10.29;83.36
20710;BME280;10516;51.518;9.864;2023-03-21T14:07:04;98616.22;;;10.30;83.25
20710;BME280;10516;51.518;9.864;2023-03-21T14:09:38;98615.41;;;10.30;83.52
20710;BME280;10516;51.518;9.864;2023-03-21T14:12:06;98623.47;;;10.35;83.66
20710;BME280;10516;51.518;9.864;2023-03-21T14:14:33;98616.25;;;10.35;83.36
20710;BME280;10516;51.518;9.864;2023-03-21T14:17:00;98614.41;;;10.36;83.54
20710;BME280;10516;51.518;9.864;2023-03-21T14:19:29;98613.75;;;10.24;84.25
20710;BME280;10516;51.518;9.864;2023-03-21T14:21:56;98610.00;;;10.20;85.67
20710;BME280;10516;51.518;9.864;2023-03-21T14:24:22;98607.28;;;10.15;85.12
20710;BME280;10516;51.518;9.864;2023-03-21T14:26:50;98600.38;;;10.19;85.05
20710;BME280;10516;51.518;9.864;2023-03-21T14:29:38;98601.19;;;10.19;85.10
20710;BME280;10516;51.518;9.864;2023-03-21T14:32:02;98602.13;;;10.35;84.82
20710;BME280;10516;51.518;9.864;2023-03-21T14:34:30;98594.88;;;10.30;84.57
20710;BME280;10516;51.518;9.864;2023-03-21T14:36:57;98586.34;;;10.28;84.95
20710;BME280;10516;51.518;9.864;2023-03-21T14:39:24;98591.00;;;10.16;85.46
20710;BME280;10516;51.518;9.864;2023-03-21T14:41:53;98590.50;;;10.19;85.86
20710;BME280;10516;51.518;9.864;2023-03-21T14:44:23;98587.84;;;10.19;85.38
20710;BME280;10516;51.518;9.864;2023-03-21T14:47:03;98580.13;;;10.23;85.20
20710;BME280;10516;51.518;9.864;2023-03-21T14:49:35;98570.75;;;10.15;85.38
20710;BME280;10516;51.518;9.864;2023-03-21T14:52:02;98581.66;;;10.14;85.23
20710;BME280;10516;51.518;9.864;2023-03-21T14:54:27;98575.56;;;10.18;84.91
20710;BME280;10516;51.518;9.864;2023-03-21T14:56:57;98578.44;;;10.12;85.38
20710;BME280;10516;51.518;9.864;2023-03-21T14:59:25;98581.91;;;10.12;85.01
20710;BME280;10516;51.518;9.864;2023-03-21T15:01:52;98590.16;;;10.11;85.05